Musson, Belgium
Current Conditions -  °F | °C
As of 4:50 PM on Sunday 25 Jan 2015 (Local Time) from ELLX Reporting Station
Light Snow Light Snow  
Wind Chill: 34°   Ceiling: 200
Heat Index: 34°   Visibility: 1mi
Dew Point: 32°   Wind: 3mph
Humidity: 93%   Direction: 230°SW
Pressure: 30.39"   Gusts: NA
Location:  49.56°N, 5.7°E
Report Text: ELLX 251550Z 23003KT 1700 R24/P1500N -SN BR BKN002 01/00 Q1029 TEMPO 1500 -SN
Loading
Personal Weather Stations






























Interactive Weather Map New forecast layout! Learn more

10-Day Weather Forecast

Advertisements
Track Severe Weather on mobile